sensor_id;sensor_type;location;lat;lon;timestamp;pressure;altitude;pressure_sealevel;temperature;humidity
33496;BME280;19836;55.812;37.560;2022-10-29T00:00:39;99675.63;;;11.19;88.58
33496;BME280;19836;55.812;37.560;2022-10-29T00:03:08;99671.19;;;11.18;88.04
33496;BME280;19836;55.812;37.560;2022-10-29T00:05:35;99672.13;;;11.17;88.42
33496;BME280;19836;55.812;37.560;2022-10-29T00:08:01;99668.66;;;11.15;87.95
33496;BME280;19836;55.812;37.560;2022-10-29T00:10:28;99676.69;;;11.15;88.07
33496;BME280;19836;55.812;37.560;2022-10-29T00:12:54;99663.28;;;11.15;88.10
33496;BME280;19836;55.812;37.560;2022-10-29T00:15:20;99671.25;;;11.17;88.13
33496;BME280;19836;55.812;37.560;2022-10-29T00:17:46;99664.13;;;11.16;87.98
33496;BME280;19836;55.812;37.560;2022-10-29T00:20:12;99668.56;;;11.17;87.92
33496;BME280;19836;55.812;37.560;2022-10-29T00:22:38;99670.41;;;11.16;88.23
33496;BME280;19836;55.812;37.560;2022-10-29T00:25:04;99660.59;;;11.15;88.13
33496;BME280;19836;55.812;37.560;2022-10-29T00:27:30;99665.06;;;11.15;88.11
33496;BME280;19836;55.812;37.560;2022-10-29T00:29:56;99668.66;;;11.15;87.91
33496;BME280;19836;55.812;37.560;2022-10-29T00:32:22;99659.66;;;11.16;87.99
33496;BME280;19836;55.812;37.560;2022-10-29T00:34:47;99660.53;;;11.17;88.18
33496;BME280;19836;55.812;37.560;2022-10-29T00:37:13;99657.91;;;11.15;88.03
33496;BME280;19836;55.812;37.560;2022-10-29T00:39:42;99661.50;;;11.14;87.72
33496;BME280;19836;55.812;37.560;2022-10-29T00:42:15;99649.91;;;11.14;88.21
33496;BME280;19836;55.812;37.560;2022-10-29T00:44:42;99650.78;;;11.14;88.11
33496;BME280;19836;55.812;37.560;2022-10-29T00:47:28;99653.31;;;11.19;87.69
33496;BME280;19836;55.812;37.560;2022-10-29T00:50:04;99643.56;;;11.16;87.61
33496;BME280;19836;55.812;37.560;2022-10-29T00:52:33;99642.69;;;11.16;87.87
33496;BME280;19836;55.812;37.560;2022-10-29T00:55:04;99645.41;;;11.14;87.53
33496;BME280;19836;55.812;37.560;2022-10-29T00:57:38;99643.56;;;11.16;87.89
33496;BME280;19836;55.812;37.560;2022-10-29T01:00:08;99645.38;;;11.16;87.81
33496;BME280;19836;55.812;37.560;2022-10-29T01:02:35;99632.94;;;11.13;87.36
33496;BME280;19836;55.812;37.560;2022-10-29T01:05:03;99630.38;;;11.10;87.56
33496;BME280;19836;55.812;37.560;2022-10-29T01:07:30;99622.44;;;11.07;87.77
33496;BME280;19836;55.812;37.560;2022-10-29T01:09:56;99627.03;;;11.04;87.63
33496;BME280;19836;55.812;37.560;2022-10-29T01:28:17;99605.41;;;10.82;88.17
33496;BME280;19836;55.812;37.560;2022-10-29T01:36:23;99586.34;;;10.65;87.97
33496;BME280;19836;55.812;37.560;2022-10-29T01:46:47;99586.75;;;10.53;88.40
33496;BME280;19836;55.812;37.560;2022-10-29T01:49:21;99588.69;;;10.48;88.85
33496;BME280;19836;55.812;37.560;2022-10-29T01:51:50;99575.34;;;10.47;89.07
33496;BME280;19836;55.812;37.560;2022-10-29T01:54:18;99583.25;;;10.51;89.01
33496;BME280;19836;55.812;37.560;2022-10-29T01:56:52;99574.47;;;10.46;88.93
33496;BME280;19836;55.812;37.560;2022-10-29T01:59:18;99573.59;;;10.46;89.05
33496;BME280;19836;55.812;37.560;2022-10-29T02:02:12;99578.19;;;10.42;89.32
33496;BME280;19836;55.812;37.560;2022-10-29T02:04:52;99574.81;;;10.36;88.93
33496;BME280;19836;55.812;37.560;2022-10-29T02:12:46;99569.00;;;10.49;88.79
33496;BME280;19836;55.812;37.560;2022-10-29T02:17:58;99567.06;;;10.54;88.59
33496;BME280;19836;55.812;37.560;2022-10-29T02:20:24;99564.38;;;10.54;88.66
33496;BME280;19836;55.812;37.560;2022-10-29T02:22:50;99566.16;;;10.55;88.42
33496;BME280;19836;55.812;37.560;2022-10-29T02:25:16;99564.25;;;10.59;88.69
33496;BME280;19836;55.812;37.560;2022-10-29T02:27:42;99558.13;;;10.55;88.57
33496;BME280;19836;55.812;37.560;2022-10-29T02:30:09;99562.50;;;10.58;87.89
33496;BME280;19836;55.812;37.560;2022-10-29T02:32:35;99563.47;;;10.55;88.23
33496;BME280;19836;55.812;37.560;2022-10-29T02:35:01;99568.91;;;10.52;88.56
33496;BME280;19836;55.812;37.560;2022-10-29T02:37:29;99561.59;;;10.57;87.92
33496;BME280;19836;55.812;37.560;2022-10-29T02:39:55;99556.03;;;10.63;88.24
33496;BME280;19836;55.812;37.560;2022-10-29T02:42:21;99554.25;;;10.64;88.40
33496;BME280;19836;55.812;37.560;2022-10-29T02:44:47;99547.88;;;10.68;88.10
33496;BME280;19836;55.812;37.560;2022-10-29T02:47:13;99548.50;;;10.74;87.86
33496;BME280;19836;55.812;37.560;2022-10-29T02:49:39;99545.66;;;10.80;88.03
33496;BME280;19836;55.812;37.560;2022-10-29T02:52:05;99548.06;;;10.88;87.33
33496;BME280;19836;55.812;37.560;2022-10-29T02:54:31;99532.78;;;10.90;87.26
33496;BME280;19836;55.812;37.560;2022-10-29T02:56:59;99539.03;;;10.90;87.17
33496;BME280;19836;55.812;37.560;2022-10-29T02:59:25;99533.59;;;10.92;86.38
33496;BME280;19836;55.812;37.560;2022-10-29T03:01:51;99532.69;;;10.93;86.31
33496;BME280;19836;55.812;37.560;2022-10-29T03:04:17;99532.69;;;10.93;86.36
33496;BME280;19836;55.812;37.560;2022-10-29T03:06:43;99528.09;;;10.96;86.22
33496;BME280;19836;55.812;37.560;2022-10-29T03:09:09;99523.66;;;10.95;86.18
33496;BME280;19836;55.812;37.560;2022-10-29T03:11:35;99518.31;;;10.95;85.98
33496;BME280;19836;55.812;37.560;2022-10-29T03:14:01;99517.31;;;10.98;86.10
33496;BME280;19836;55.812;37.560;2022-10-29T03:16:27;99517.19;;;11.01;85.79
33496;BME280;19836;55.812;37.560;2022-10-29T03:18:52;99511.88;;;10.99;85.88
33496;BME280;19836;55.812;37.560;2022-10-29T03:21:21;99518.22;;;10.97;86.03
33496;BME280;19836;55.812;37.560;2022-10-29T03:23:47;99506.66;;;10.96;85.91
33496;BME280;19836;55.812;37.560;2022-10-29T03:26:13;99506.66;;;10.96;86.39
33496;BME280;19836;55.812;37.560;2022-10-29T03:28:39;99502.09;;;10.98;86.32
33496;BME280;19836;55.812;37.560;2022-10-29T03:31:05;99505.63;;;11.00;86.25
33496;BME280;19836;55.812;37.560;2022-10-29T03:33:31;99490.41;;;11.01;85.86
33496;BME280;19836;55.812;37.560;2022-10-29T03:38:23;99479.56;;;11.04;85.39
33496;BME280;19836;55.812;37.560;2022-10-29T03:40:49;99486.91;;;10.99;85.68
33496;BME280;19836;55.812;37.560;2022-10-29T03:43:15;99488.59;;;11.01;85.99
33496;BME280;19836;55.812;37.560;2022-10-29T03:45:41;99479.63;;;11.02;85.47
33496;BME280;19836;55.812;37.560;2022-10-29T03:48:06;99479.63;;;11.02;85.63
33496;BME280;19836;55.812;37.560;2022-10-29T03:50:32;99470.63;;;11.03;85.75
33496;BME280;19836;55.812;37.560;2022-10-29T03:52:58;99476.13;;;11.00;85.73
33496;BME280;19836;55.812;37.560;2022-10-29T03:55:24;99467.25;;;10.98;85.64
33496;BME280;19836;55.812;37.560;2022-10-29T03:57:54;99469.88;;;11.00;85.92
33496;BME280;19836;55.812;37.560;2022-10-29T04:00:20;99456.47;;;11.00;85.74
33496;BME280;19836;55.812;37.560;2022-10-29T04:02:47;99458.16;;;11.02;85.57
33496;BME280;19836;55.812;37.560;2022-10-29T04:05:13;99450.22;;;10.99;85.63
33496;BME280;19836;55.812;37.560;2022-10-29T04:07:39;99446.69;;;10.99;85.53
33496;BME280;19836;55.812;37.560;2022-10-29T04:10:05;99442.31;;;10.96;85.61
33496;BME280;19836;55.812;37.560;2022-10-29T04:12:31;99440.56;;;10.95;85.61
33496;BME280;19836;55.812;37.560;2022-10-29T04:14:57;99440.50;;;10.97;86.07
33496;BME280;19836;55.812;37.560;2022-10-29T04:17:23;99425.28;;;10.97;85.99
33496;BME280;19836;55.812;37.560;2022-10-29T04:19:49;99426.09;;;10.99;86.03
33496;BME280;19836;55.812;37.560;2022-10-29T04:22:15;99419.94;;;10.97;86.18
33496;BME280;19836;55.812;37.560;2022-10-29T04:24:41;99417.34;;;10.94;85.80
33496;BME280;19836;55.812;37.560;2022-10-29T04:27:07;99420.88;;;10.96;85.77
33496;BME280;19836;55.812;37.560;2022-10-29T04:29:32;99407.34;;;10.99;85.33
33496;BME280;19836;55.812;37.560;2022-10-29T04:32:02;99407.34;;;10.99;85.56
33496;BME280;19836;55.812;37.560;2022-10-29T04:34:29;99410.00;;;10.99;85.26
33496;BME280;19836;55.812;37.560;2022-10-29T04:36:55;99413.53;;;11.01;85.11
33496;BME280;19836;55.812;37.560;2022-10-29T04:39:21;99411.66;;;11.03;85.34
33496;BME280;19836;55.812;37.560;2022-10-29T04:41:47;99393.06;;;10.99;84.67
33496;BME280;19836;55.812;37.560;2022-10-29T04:44:14;99392.25;;;10.97;85.07
33496;BME280;19836;55.812;37.560;2022-10-29T04:46:40;99386.06;;;10.95;85.22
33496;BME280;19836;55.812;37.560;2022-10-29T04:49:06;99378.84;;;10.97;85.22
33496;BME280;19836;55.812;37.560;2022-10-29T04:51:31;99386.97;;;10.95;84.69
33496;BME280;19836;55.812;37.560;2022-10-29T04:53:57;99377.16;;;10.94;84.83
33496;BME280;19836;55.812;37.560;2022-10-29T04:56:23;99369.09;;;10.94;84.79
33496;BME280;19836;55.812;37.560;2022-10-29T04:58:50;99363.75;;;10.94;84.98
33496;BME280;19836;55.812;37.560;2022-10-29T05:01:17;99366.31;;;10.97;84.86
33496;BME280;19836;55.812;37.560;2022-10-29T05:03:43;99366.22;;;11.00;84.91
33496;BME280;19836;55.812;37.560;2022-10-29T05:06:09;99365.28;;;11.01;84.67
33496;BME280;19836;55.812;37.560;2022-10-29T05:08:35;99373.19;;;11.04;84.95
33496;BME280;19836;55.812;37.560;2022-10-29T05:11:04;99374.97;;;11.05;84.28
33496;BME280;19836;55.812;37.560;2022-10-29T05:13:32;99372.28;;;11.05;84.24
33496;BME280;19836;55.812;37.560;2022-10-29T05:15:58;99376.72;;;11.06;84.57
33496;BME280;19836;55.812;37.560;2022-10-29T05:18:24;99369.50;;;11.07;84.28
33496;BME280;19836;55.812;37.560;2022-10-29T05:20:54;99372.28;;;11.05;84.15
33496;BME280;19836;55.812;37.560;2022-10-29T05:23:21;99362.41;;;11.06;84.22
33496;BME280;19836;55.812;37.560;2022-10-29T05:25:47;99362.31;;;11.09;84.39
33496;BME280;19836;55.812;37.560;2022-10-29T05:28:17;99359.44;;;11.13;83.81
33496;BME280;19836;55.812;37.560;2022-10-29T05:30:44;99369.06;;;11.19;83.93
33496;BME280;19836;55.812;37.560;2022-10-29T05:33:13;99357.34;;;11.21;83.83
33496;BME280;19836;55.812;37.560;2022-10-29T05:35:39;99351.84;;;11.24;83.97
33496;BME280;19836;55.812;37.560;2022-10-29T05:38:05;99356.22;;;11.27;83.63
33496;BME280;19836;55.812;37.560;2022-10-29T05:40:32;99356.16;;;11.28;84.06
33496;BME280;19836;55.812;37.560;2022-10-29T05:42:58;99356.06;;;11.31;83.66
33496;BME280;19836;55.812;37.560;2022-10-29T05:45:24;99350.56;;;11.34;84.03
33496;BME280;19836;55.812;37.560;2022-10-29T05:48:00;99344.19;;;11.37;83.53
33496;BME280;19836;55.812;37.560;2022-10-29T05:50:27;99336.91;;;11.40;83.34
33496;BME280;19836;55.812;37.560;2022-10-29T05:52:55;99339.59;;;11.40;83.67
33496;BME280;19836;55.812;37.560;2022-10-29T05:55:21;99342.28;;;11.40;83.44
33496;BME280;19836;55.812;37.560;2022-10-29T05:57:49;99342.28;;;11.40;83.30
33496;BME280;19836;55.812;37.560;2022-10-29T06:00:15;99333.28;;;11.41;83.09
33496;BME280;19836;55.812;37.560;2022-10-29T06:02:44;99324.31;;;11.42;83.16
33496;BME280;19836;55.812;37.560;2022-10-29T06:05:10;99329.56;;;11.45;82.93
33496;BME280;19836;55.812;37.560;2022-10-29T06:07:37;99325.94;;;11.46;83.24
33496;BME280;19836;55.812;37.560;2022-10-29T06:10:03;99320.56;;;11.46;82.94
33496;BME280;19836;55.812;37.560;2022-10-29T06:12:32;99311.69;;;11.44;82.89
33496;BME280;19836;55.812;37.560;2022-10-29T06:14:58;99315.06;;;11.49;82.60
33496;BME280;19836;55.812;37.560;2022-10-29T06:17:25;99307.00;;;11.49;82.63
33496;BME280;19836;55.812;37.560;2022-10-29T06:19:51;99315.06;;;11.49;82.22
33496;BME280;19836;55.812;37.560;2022-10-29T06:22:17;99316.84;;;11.50;82.46
33496;BME280;19836;55.812;37.560;2022-10-29T06:24:43;99309.59;;;11.52;82.55
33496;BME280;19836;55.812;37.560;2022-10-29T06:27:09;99307.59;;;11.57;82.09
33496;BME280;19836;55.812;37.560;2022-10-29T06:29:35;99300.38;;;11.59;82.39
33496;BME280;19836;55.812;37.560;2022-10-29T06:32:01;99309.25;;;11.61;81.92
33496;BME280;19836;55.812;37.560;2022-10-29T06:34:27;99298.38;;;11.64;82.21
33496;BME280;19836;55.812;37.560;2022-10-29T06:36:54;99291.88;;;11.70;81.81
33496;BME280;19836;55.812;37.560;2022-10-29T06:39:20;99300.72;;;11.72;81.77
33496;BME280;19836;55.812;37.560;2022-10-29T06:41:46;99299.63;;;11.77;81.45
33496;BME280;19836;55.812;37.560;2022-10-29T06:44:17;99288.88;;;11.77;81.00
33496;BME280;19836;55.812;37.560;2022-10-29T06:46:43;99283.63;;;11.74;80.45
33496;BME280;19836;55.812;37.560;2022-10-29T06:49:09;99284.53;;;11.75;80.10
33496;BME280;19836;55.812;37.560;2022-10-29T06:51:35;99283.63;;;11.74;80.27
33496;BME280;19836;55.812;37.560;2022-10-29T06:54:01;99277.47;;;11.72;79.76
33496;BME280;19836;55.812;37.560;2022-10-29T06:56:27;99273.00;;;11.73;80.11
33496;BME280;19836;55.812;37.560;2022-10-29T06:58:53;99270.22;;;11.74;80.07
33496;BME280;19836;55.812;37.560;2022-10-29T07:01:42;99259.34;;;11.77;79.65
33496;BME280;19836;55.812;37.560;2022-10-29T07:04:09;99264.72;;;11.77;79.49
33496;BME280;19836;55.812;37.560;2022-10-29T07:06:34;99266.72;;;11.72;79.66
33496;BME280;19836;55.812;37.560;2022-10-29T07:09:00;99257.78;;;11.72;79.31
33496;BME280;19836;55.812;37.560;2022-10-29T07:11:26;99255.06;;;11.73;79.61
33496;BME280;19836;55.812;37.560;2022-10-29T07:13:52;99250.41;;;11.77;79.73
33496;BME280;19836;55.812;37.560;2022-10-29T07:16:18;99239.69;;;11.77;79.35
33496;BME280;19836;55.812;37.560;2022-10-29T07:18:44;99241.56;;;11.75;79.10
33496;BME280;19836;55.812;37.560;2022-10-29T07:21:09;99241.56;;;11.75;79.42
33496;BME280;19836;55.812;37.560;2022-10-29T07:23:35;99243.25;;;11.77;79.46
33496;BME280;19836;55.812;37.560;2022-10-29T07:26:03;99240.44;;;11.80;79.27
33496;BME280;19836;55.812;37.560;2022-10-29T07:28:29;99243.88;;;11.84;79.24
33496;BME280;19836;55.812;37.560;2022-10-29T07:30:59;99233.75;;;11.90;79.34
33496;BME280;19836;55.812;37.560;2022-10-29T07:33:27;99224.59;;;11.94;78.76
33496;BME280;19836;55.812;37.560;2022-10-29T07:35:56;99222.72;;;11.96;78.78
33496;BME280;19836;55.812;37.560;2022-10-29T07:38:22;99222.69;;;11.98;78.51
33496;BME280;19836;55.812;37.560;2022-10-29T07:40:49;99211.78;;;12.01;78.49
33496;BME280;19836;55.812;37.560;2022-10-29T07:43:16;99216.16;;;12.03;78.41
33496;BME280;19836;55.812;37.560;2022-10-29T07:45:44;99210.72;;;12.05;77.94
33496;BME280;19836;55.812;37.560;2022-10-29T07:48:10;99197.16;;;12.08;77.71
33496;BME280;19836;55.812;37.560;2022-10-29T07:50:37;99194.31;;;12.11;77.54
33496;BME280;19836;55.812;37.560;2022-10-29T07:53:05;99198.69;;;12.13;77.53
33496;BME280;19836;55.812;37.560;2022-10-29T07:55:31;99194.25;;;12.12;77.68
33496;BME280;19836;55.812;37.560;2022-10-29T07:57:59;99197.00;;;12.11;77.21
33496;BME280;19836;55.812;37.560;2022-10-29T08:00:28;99194.53;;;12.06;77.67
33496;BME280;19836;55.812;37.560;2022-10-29T08:02:54;99190.97;;;11.86;77.47
33496;BME280;19836;55.812;37.560;2022-10-29T08:05:22;99187.56;;;11.62;78.06
33496;BME280;19836;55.812;37.560;2022-10-29T08:07:48;99179.56;;;11.39;79.49
33496;BME280;19836;55.812;37.560;2022-10-29T08:10:14;99174.25;;;11.18;80.34
33496;BME280;19836;55.812;37.560;2022-10-29T08:12:50;99177.63;;;11.01;81.60
33496;BME280;19836;55.812;37.560;2022-10-29T08:15:17;99178.25;;;10.86;82.30
33496;BME280;19836;55.812;37.560;2022-10-29T08:17:43;99169.63;;;10.78;83.64
33496;BME280;19836;55.812;37.560;2022-10-29T08:20:10;99176.88;;;10.76;84.58
33496;BME280;19836;55.812;37.560;2022-10-29T08:22:36;99172.31;;;10.78;85.12
33496;BME280;19836;55.812;37.560;2022-10-29T08:25:04;99171.38;;;10.79;85.50
33496;BME280;19836;55.812;37.560;2022-10-29T08:36:29;99168.75;;;10.99;87.36
33496;BME280;19836;55.812;37.560;2022-10-29T08:39:03;99167.03;;;10.98;87.27
33496;BME280;19836;55.812;37.560;2022-10-29T08:44:28;99161.66;;;10.98;88.03
33496;BME280;19836;55.812;37.560;2022-10-29T08:47:22;99155.31;;;11.01;88.72
33496;BME280;19836;55.812;37.560;2022-10-29T08:50:29;99148.81;;;11.06;88.81
33496;BME280;19836;55.812;37.560;2022-10-29T08:52:55;99149.69;;;11.07;88.92
33496;BME280;19836;55.812;37.560;2022-10-29T08:55:33;99145.09;;;11.10;88.76
33496;BME280;19836;55.812;37.560;2022-10-29T08:58:12;99134.41;;;11.09;88.96
33496;BME280;19836;55.812;37.560;2022-10-29T09:00:45;99128.38;;;11.04;88.95
33496;BME280;19836;55.812;37.560;2022-10-29T09:03:15;99118.38;;;11.07;88.87
33496;BME280;19836;55.812;37.560;2022-10-29T09:05:48;99111.16;;;11.09;88.87
33496;BME280;19836;55.812;37.560;2022-10-29T09:08:39;99107.56;;;11.10;89.32
33496;BME280;19836;55.812;37.560;2022-10-29T09:14:34;99089.94;;;11.25;89.25
33496;BME280;19836;55.812;37.560;2022-10-29T09:25:21;99080.25;;;11.21;88.79
33496;BME280;19836;55.812;37.560;2022-10-29T09:31:13;99053.66;;;11.16;88.77
33496;BME280;19836;55.812;37.560;2022-10-29T09:33:44;99061.97;;;11.10;88.88
33496;BME280;19836;55.812;37.560;2022-10-29T09:36:16;99061.16;;;11.08;88.98
33496;BME280;19836;55.812;37.560;2022-10-29T09:41:15;99053.94;;;11.10;89.20
33496;BME280;19836;55.812;37.560;2022-10-29T09:46:21;99045.47;;;11.19;89.53
33496;BME280;19836;55.812;37.560;2022-10-29T09:52:02;99029.59;;;11.15;89.43
33496;BME280;19836;55.812;37.560;2022-10-29T09:54:03;99041.31;;;11.12;89.10
33496;BME280;19836;55.812;37.560;2022-10-29T09:56:29;99036.91;;;11.11;89.15
33496;BME280;19836;55.812;37.560;2022-10-29T09:59:15;99035.69;;;11.18;89.66
33496;BME280;19836;55.812;37.560;2022-10-29T10:01:43;99031.81;;;11.25;89.57
33496;BME280;19836;55.812;37.560;2022-10-29T10:04:41;99022.81;;;11.26;88.89
33496;BME280;19836;55.812;37.560;2022-10-29T10:07:11;99026.44;;;11.25;88.76
33496;BME280;19836;55.812;37.560;2022-10-29T10:10:01;99019.19;;;11.27;88.62
33496;BME280;19836;55.812;37.560;2022-10-29T10:12:47;99013.97;;;11.24;88.60
33496;BME280;19836;55.812;37.560;2022-10-29T10:18:03;99018.41;;;11.25;88.32
33496;BME280;19836;55.812;37.560;2022-10-29T10:20:37;99007.75;;;11.24;88.26
33496;BME280;19836;55.812;37.560;2022-10-29T10:23:43;99002.97;;;11.30;88.44
33496;BME280;19836;55.812;37.560;2022-10-29T10:29:11;99000.03;;;11.36;87.72
33496;BME280;19836;55.812;37.560;2022-10-29T10:31:39;98994.66;;;11.36;87.46
33496;BME280;19836;55.812;37.560;2022-10-29T10:34:14;98988.41;;;11.36;87.77
33496;BME280;19836;55.812;37.560;2022-10-29T10:36:42;98990.09;;;11.38;87.17
33496;BME280;19836;55.812;37.560;2022-10-29T10:39:26;98984.59;;;11.41;87.13
33496;BME280;19836;55.812;37.560;2022-10-29T10:41:55;98983.78;;;11.39;86.83
33496;BME280;19836;55.812;37.560;2022-10-29T10:44:25;98979.28;;;11.40;86.66
33496;BME280;19836;55.812;37.560;2022-10-29T10:46:54;98969.34;;;11.42;86.27
33496;BME280;19836;55.812;37.560;2022-10-29T10:49:34;98970.16;;;11.44;86.45
33496;BME280;19836;55.812;37.560;2022-10-29T10:52:36;98965.41;;;11.50;85.82
33496;BME280;19836;55.812;37.560;2022-10-29T10:55:09;98956.34;;;11.53;86.00
33496;BME280;19836;55.812;37.560;2022-10-29T10:57:58;98949.97;;;11.55;85.69
33496;BME280;19836;55.812;37.560;2022-10-29T11:00:30;98952.84;;;11.51;85.20
33496;BME280;19836;55.812;37.560;2022-10-29T11:03:07;98949.38;;;11.49;85.17
33496;BME280;19836;55.812;37.560;2022-10-29T11:05:40;98955.59;;;11.49;85.13
33496;BME280;19836;55.812;37.560;2022-10-29T11:08:34;98948.41;;;11.50;84.78
33496;BME280;19836;55.812;37.560;2022-10-29T11:11:12;98934.13;;;11.49;84.57
33496;BME280;19836;55.812;37.560;2022-10-29T11:13:41;98934.41;;;11.43;84.08
33496;BME280;19836;55.812;37.560;2022-10-29T11:16:15;98932.75;;;11.41;84.00
33496;BME280;19836;55.812;37.560;2022-10-29T11:19:23;98926.31;;;11.45;84.07
33496;BME280;19836;55.812;37.560;2022-10-29T11:22:19;98930.72;;;11.46;84.21
33496;BME280;19836;55.812;37.560;2022-10-29T11:25:16;98923.63;;;11.45;83.95
33496;BME280;19836;55.812;37.560;2022-10-29T11:28:22;98915.69;;;11.42;83.76
33496;BME280;19836;55.812;37.560;2022-10-29T11:30:45;98919.19;;;11.44;83.67
33496;BME280;19836;55.812;37.560;2022-10-29T11:33:36;98907.66;;;11.42;83.77
33496;BME280;19836;55.812;37.560;2022-10-29T11:36:16;98912.97;;;11.43;83.72
33496;BME280;19836;55.812;37.560;2022-10-29T11:39:00;98900.56;;;11.41;83.65
33496;BME280;19836;55.812;37.560;2022-10-29T11:44:09;98895.06;;;11.44;84.12
33496;BME280;19836;55.812;37.560;2022-10-29T11:46:49;98888.75;;;11.45;84.11
33496;BME280;19836;55.812;37.560;2022-10-29T11:49:42;98887.88;;;11.44;84.04
33496;BME280;19836;55.812;37.560;2022-10-29T11:52:14;98886.13;;;11.43;83.70
33496;BME280;19836;55.812;37.560;2022-10-29T11:57:21;98874.56;;;11.43;83.86
33496;BME280;19836;55.812;37.560;2022-10-29T12:00:03;98871.63;;;11.47;83.89
33496;BME280;19836;55.812;37.560;2022-10-29T12:05:45;98871.63;;;11.47;84.13
33496;BME280;19836;55.812;37.560;2022-10-29T12:16:47;98853.56;;;11.51;83.97
33496;BME280;19836;55.812;37.560;2022-10-29T12:20:03;98844.69;;;11.50;83.88
33496;BME280;19836;55.812;37.560;2022-10-29T12:22:27;98847.25;;;11.52;84.33
33496;BME280;19836;55.812;37.560;2022-10-29T12:30:03;98846.41;;;11.51;83.85
33496;BME280;19836;55.812;37.560;2022-10-29T12:35:28;98838.56;;;11.47;83.88
33496;BME280;19836;55.812;37.560;2022-10-29T12:40:23;98835.97;;;11.45;83.44
33496;BME280;19836;55.812;37.560;2022-10-29T12:42:51;98828.13;;;11.41;83.61
33496;BME280;19836;55.812;37.560;2022-10-29T12:48:16;98831.78;;;11.40;83.75
33496;BME280;19836;55.812;37.560;2022-10-29T12:51:44;98812.03;;;11.41;83.82
33496;BME280;19836;55.812;37.560;2022-10-29T12:54:28;98821.03;;;11.40;83.79
33496;BME280;19836;55.812;37.560;2022-10-29T12:57:21;98803.34;;;11.36;83.60
33496;BME280;19836;55.812;37.560;2022-10-29T12:59:52;98807.69;;;11.38;83.39
33496;BME280;19836;55.812;37.560;2022-10-29T13:07:36;98797.16;;;11.35;83.85
33496;BME280;19836;55.812;37.560;2022-10-29T13:13:02;98790.81;;;11.36;83.69
33496;BME280;19836;55.812;37.560;2022-10-29T13:15:36;98790.81;;;11.36;83.88
33496;BME280;19836;55.812;37.560;2022-10-29T13:20:48;98785.22;;;11.41;84.11
33496;BME280;19836;55.812;37.560;2022-10-29T13:25:54;98779.09;;;11.39;84.04
33496;BME280;19836;55.812;37.560;2022-10-29T13:30:48;98762.91;;;11.40;83.97
33496;BME280;19836;55.812;37.560;2022-10-29T13:43:53;98747.09;;;11.34;84.22
33496;BME280;19836;55.812;37.560;2022-10-29T13:46:38;98742.69;;;11.33;84.35
33496;BME280;19836;55.812;37.560;2022-10-29T13:49:19;98751.38;;;11.38;84.09
33496;BME280;19836;55.812;37.560;2022-10-29T13:51:50;98740.81;;;11.35;83.98
33496;BME280;19836;55.812;37.560;2022-10-29T13:54:44;98734.44;;;11.38;84.26
33496;BME280;19836;55.812;37.560;2022-10-29T13:59:43;98727.25;;;11.38;84.22
33496;BME280;19836;55.812;37.560;2022-10-29T14:02:29;98723.63;;;11.39;84.21
33496;BME280;19836;55.812;37.560;2022-10-29T14:05:19;98713.75;;;11.40;84.06
33496;BME280;19836;55.812;37.560;2022-10-29T14:10:32;98715.56;;;11.39;83.88
33496;BME280;19836;55.812;37.560;2022-10-29T14:16:16;98711.41;;;11.34;84.36
33496;BME280;19836;55.812;37.560;2022-10-29T14:18:47;98695.22;;;11.35;84.09
33496;BME280;19836;55.812;37.560;2022-10-29T14:21:21;98695.22;;;11.35;84.55
33496;BME280;19836;55.812;37.560;2022-10-29T14:26:28;98694.34;;;11.35;84.41
33496;BME280;19836;55.812;37.560;2022-10-29T14:28:54;98684.50;;;11.35;84.59
33496;BME280;19836;55.812;37.560;2022-10-29T14:31:23;98680.00;;;11.36;84.51
33496;BME280;19836;55.812;37.560;2022-10-29T14:33:57;98677.38;;;11.34;84.97
33496;BME280;19836;55.812;37.560;2022-10-29T14:39:00;98679.91;;;11.37;84.83
33496;BME280;19836;55.812;37.560;2022-10-29T14:41:29;98667.41;;;11.38;84.84
33496;BME280;19836;55.812;37.560;2022-10-29T14:46:39;98663.06;;;11.35;85.39
33496;BME280;19836;55.812;37.560;2022-10-29T14:49:19;98657.69;;;11.35;85.17
33496;BME280;19836;55.812;37.560;2022-10-29T14:52:26;98656.66;;;11.38;85.28
33496;BME280;19836;55.812;37.560;2022-10-29T14:54:58;98650.56;;;11.34;85.31
33496;BME280;19836;55.812;37.560;2022-10-29T14:57:28;98651.44;;;11.35;85.38
33496;BME280;19836;55.812;37.560;2022-10-29T15:00:03;98648.50;;;11.39;85.44
33496;BME280;19836;55.812;37.560;2022-10-29T15:02:35;98639.56;;;11.40;85.64
33496;BME280;19836;55.812;37.560;2022-10-29T15:05:02;98632.34;;;11.41;85.62
33496;BME280;19836;55.812;37.560;2022-10-29T15:07:32;98630.38;;;11.44;85.17
33496;BME280;19836;55.812;37.560;2022-10-29T15:10:16;98628.66;;;11.43;85.09
33496;BME280;19836;55.812;37.560;2022-10-29T15:12:45;98619.97;;;11.38;85.42
33496;BME280;19836;55.812;37.560;2022-10-29T15:17:50;98617.34;;;11.37;85.52
33496;BME280;19836;55.812;37.560;2022-10-29T15:20:26;98598.69;;;11.35;85.54
33496;BME280;19836;55.812;37.560;2022-10-29T15:22:55;98608.47;;;11.36;85.74
33496;BME280;19836;55.812;37.560;2022-10-29T15:25:36;98605.53;;;11.41;85.77
33496;BME280;19836;55.812;37.560;2022-10-29T15:28:08;98598.50;;;11.38;85.67
33496;BME280;19836;55.812;37.560;2022-10-29T15:30:36;98594.72;;;11.42;85.67
33496;BME280;19836;55.812;37.560;2022-10-29T15:33:14;98594.59;;;11.45;86.04
33496;BME280;19836;55.812;37.560;2022-10-29T15:35:53;98592.69;;;11.47;86.05
33496;BME280;19836;55.812;37.560;2022-10-29T15:43:51;98583.69;;;11.48;85.44
33496;BME280;19836;55.812;37.560;2022-10-29T15:48:46;98574.53;;;11.52;85.75
33496;BME280;19836;55.812;37.560;2022-10-29T15:51:13;98569.88;;;11.56;85.65
33496;BME280;19836;55.812;37.560;2022-10-29T15:53:39;98569.78;;;11.57;85.59